ZSSS/SHA METAR and TAF weather

Enter ICAO airport designator
Station Type Date Time Source
ZSSS METAR 2019/11/18 11:30 UTC NOAA

ZSSS 181130Z 33007MPS CAVOK 10/01 Q1028 NOSIG


Station Type Date Time Source
ZSSS Decoded METAR 2019/11/18 11:30 UTC NOAA

Shanghai / Hongqiao, China (ZSSS) 31-10N 121-26E 3M
Nov 18, 2019 - 06:30 AM EST / 2019.11.18 1130 UTC
Wind: from the NNW (330 degrees) at 16 MPH (14 KT):0
Visibility: greater than 7 mile(s):0
Temperature: 50 F (10 C)
Dew Point: 33 F (1 C)
Relative Humidity: 53%
Pressure (altimeter): 30.36 in. Hg (1028 hPa)
ob: ZSSS 181130Z 33007MPS CAVOK 10/01 Q1028 NOSIG
cycle: 11

Station Type Date Time Source
ZSSS TAF 2019/11/18 12:03 UTC NOAA

TAF ZSSS 180907Z 1812/1912 34006MPS 6000 BKN020 TX14/1906Z TN07/1821Z

Example: see airport list